Decoded Metar for LZKZ (KOSICE in SLOVAKIA) (IATA:KSC) | Meteo·Mobile Aviation Weather
aviador You're here:

LZKZ Decoded Metar

KOSICE in SLOVAKIA
Report Time2018-09-18 13:30:00
UTC Time2018-09-18 13:47:40
Flight Rules vfr VFR
Wind180° at 04 kt
W.Decomp.*RWY 19: 3.9 kt HW 1 kt LCW
W.Rank180° ranks 11
Current wind is below 180° avg. (5.5)
Visibility9999 m
Phenomena:N/A
Clouds:N/A
Expected CloudBase > 6,800 ft AGL from Temp-Dew spread
CeilingNone
Temp26°C (ISA +13)
Dew Point09°C (34% RH)
AAT24.3°C
QNH1022 hPa
Density Alt2,064 ft
Elevation761 ft
Report Wrong Elevation
Raw Report
LZKZ 181330Z 18004KT 120V250 CAVOK 26/09 Q1022 NOSIG=

Extra information for LZKZ:More info

Metar Taf Metar & Taf Last 4 Metars F.Rules Stats Wind Profile Meteogram Temp Stats Airport Information Weather charts Add Link Nearby VenuesMetar ALERT Operation Metar Decoded Social comments